Time;durP1;ratioP1;P1;durP2;ratioP2;P2;SDS_P1;SDS_P2;PMS_P1;PMS_P2;Temp;Humidity;BMP_temperature;BMP_pressure;BME280_temperature;BME280_humidity;BME280_pressure;Samples;Min_cycle;Max_cycle;Signal;HPM_P1;HPM_P2
2022/01/04 00:01:21;;;;;;;0.40;0.20;;;13.20;99.90;;;;;;5095979;28;20400;-74
2022/01/04 00:03:47;;;;;;;0.40;0.30;;;13.10;99.90;;;;;;5102170;28;20473;-72
2022/01/04 00:06:13;;;;;;;0.40;0.20;;;13.10;99.90;;;;;;5101764;28;20716;-72
2022/01/04 00:08:39;;;;;;;0.40;0.20;;;13.10;99.90;;;;;;5101450;28;20457;-73
2022/01/04 00:11:15;;;;;;;0.50;0.50;;;13.10;99.90;;;;;;5101554;28;20661;-73
2022/01/04 00:13:41;;;;;;;0.40;0.20;;;13.10;99.90;;;;;;5101131;28;20860;-72
2022/01/04 00:16:07;;;;;;;0.40;0.20;;;13.00;99.90;;;;;;5092736;28;20443;-73
2022/01/04 00:18:34;;;;;;;0.40;0.20;;;12.90;99.90;;;;;;5090582;28;20388;-73
2022/01/04 00:21:00;;;;;;;0.40;0.20;;;12.90;99.90;;;;;;5090132;28;20385;-73
2022/01/04 00:23:26;;;;;;;0.40;0.28;;;12.90;99.90;;;;;;5090975;28;20386;-73
2022/01/04 00:25:52;;;;;;;0.40;0.20;;;12.90;99.90;;;;;;5090333;28;20378;-73
2022/01/04 00:28:18;;;;;;;0.40;0.30;;;12.90;99.90;;;;;;5090962;28;20701;-73
2022/01/04 00:30:44;;;;;;;0.40;0.20;;;12.90;99.90;;;;;;5090790;28;20410;-73
2022/01/04 00:33:12;;;;;;;0.40;0.30;;;12.90;99.90;;;;;;5090232;28;20736;-73
2022/01/04 00:35:38;;;;;;;0.40;0.30;;;13.00;99.90;;;;;;5091013;28;20468;-73
2022/01/04 00:38:04;;;;;;;0.40;0.20;;;13.10;99.90;;;;;;5089474;28;20741;-73
2022/01/04 00:40:30;;;;;;;0.40;0.20;;;13.10;99.90;;;;;;5091104;28;20374;-77
2022/01/04 00:42:58;;;;;;;0.40;0.30;;;13.10;99.90;;;;;;5090686;28;20377;-73
2022/01/04 00:45:27;;;;;;;0.40;0.30;;;13.10;99.90;;;;;;5108882;28;20811;-73
2022/01/04 00:50:19;;;;;;;0.40;0.20;;;13.10;99.90;;;;;;5110312;28;20405;-73
2022/01/04 00:52:45;;;;;;;0.40;0.20;;;13.10;99.90;;;;;;5111147;28;20734;-73
2022/01/04 00:55:11;;;;;;;0.40;0.20;;;13.10;99.90;;;;;;5110460;28;20471;-73
2022/01/04 00:57:37;;;;;;;0.50;0.40;;;13.10;99.60;;;;;;5092091;28;20411;-73
2022/01/04 01:00:08;;;;;;;0.70;0.70;;;13.10;99.50;;;;;;5092375;28;20405;-73
2022/01/04 01:02:34;;;;;;;0.40;0.20;;;13.20;99.30;;;;;;5110828;28;20765;-73
2022/01/04 01:04:59;;;;;;;0.70;0.70;;;13.20;99.10;;;;;;5111320;28;20373;-73
2022/01/04 01:07:25;;;;;;;0.40;0.20;;;13.30;98.80;;;;;;5092269;28;20380;-73
2022/01/04 01:12:35;;;;;;;0.40;0.20;;;13.30;98.70;;;;;;5110495;28;20371;-73
2022/01/04 01:15:03;;;;;;;0.40;0.30;;;13.40;98.30;;;;;;5111426;28;20397;-73
2022/01/04 01:17:29;;;;;;;0.40;0.20;;;13.40;98.10;;;;;;5111079;28;20364;-73
2022/01/04 01:19:55;;;;;;;0.40;0.30;;;13.40;98.00;;;;;;5111619;28;20506;-73
2022/01/04 01:22:20;;;;;;;0.40;0.30;;;13.40;97.90;;;;;;5110943;28;20372;-71
2022/01/04 01:24:46;;;;;;;0.40;0.20;;;13.60;97.50;;;;;;5111379;28;20380;-73
2022/01/04 01:27:11;;;;;;;0.40;0.20;;;13.50;97.50;;;;;;5111419;28;20380;-73
2022/01/04 01:29:37;;;;;;;0.40;0.20;;;13.60;97.20;;;;;;5110423;28;20404;-74
2022/01/04 01:32:03;;;;;;;0.40;0.20;;;13.70;96.90;;;;;;5111500;28;20384;-73
2022/01/04 01:34:29;;;;;;;0.40;0.20;;;13.60;96.90;;;;;;5110896;28;20440;-73
2022/01/04 01:36:54;;;;;;;1.40;0.70;;;13.60;96.70;;;;;;5111672;28;20502;-73
2022/01/04 01:39:20;;;;;;;0.40;0.20;;;13.70;96.30;;;;;;5111371;28;20381;-73
2022/01/04 01:41:46;;;;;;;0.40;0.20;;;13.70;96.30;;;;;;5110572;28;20861;-73
2022/01/04 01:44:11;;;;;;;0.40;0.40;;;13.70;96.30;;;;;;5102467;28;20852;-73
2022/01/04 01:46:37;;;;;;;0.40;0.20;;;13.80;95.80;;;;;;5090369;28;20439;-73
2022/01/04 01:49:03;;;;;;;0.40;0.20;;;13.80;95.70;;;;;;5090723;28;20935;-73
2022/01/04 01:51:30;;;;;;;0.40;0.30;;;13.80;95.70;;;;;;5090990;28;20398;-74
2022/01/04 01:53:56;;;;;;;0.40;0.20;;;13.90;95.40;;;;;;5090947;28;20386;-73
2022/01/04 01:56:22;;;;;;;0.40;0.30;;;13.80;95.50;;;;;;5090946;28;20471;-73
2022/01/04 01:58:48;;;;;;;0.40;0.20;;;13.80;95.60;;;;;;5090302;28;20424;-73
2022/01/04 02:01:16;;;;;;;0.40;0.20;;;13.80;95.50;;;;;;5090682;28;20381;-75
2022/01/04 02:03:42;;;;;;;0.40;0.20;;;13.80;95.60;;;;;;5090253;28;20390;-74
2022/01/04 02:06:08;;;;;;;0.40;0.20;;;13.80;95.40;;;;;;5090909;28;20393;-73
2022/01/04 02:08:34;;;;;;;0.40;0.20;;;13.90;95.30;;;;;;5090776;28;20386;-73
2022/01/04 02:11:01;;;;;;;0.40;0.30;;;13.80;95.30;;;;;;5090078;28;20420;-74
2022/01/04 02:13:28;;;;;;;0.40;0.20;;;13.90;94.90;;;;;;5090722;28;20483;-73
2022/01/04 02:15:54;;;;;;;0.40;0.20;;;13.90;94.90;;;;;;5089920;28;20858;-73
2022/01/04 02:18:20;;;;;;;0.40;0.20;;;13.90;95.00;;;;;;5090719;28;20462;-73
2022/01/04 02:20:46;;;;;;;0.40;0.40;;;13.90;95.00;;;;;;5090061;28;20387;-75
2022/01/04 02:23:12;;;;;;;0.40;0.20;;;13.90;95.00;;;;;;5072789;28;20752;-73
2022/01/04 02:25:38;;;;;;;0.40;0.20;;;13.90;95.10;;;;;;5072248;28;20796;-73
2022/01/04 02:28:04;;;;;;;0.40;0.20;;;13.90;95.60;;;;;;5090335;28;20386;-72
2022/01/04 02:30:30;;;;;;;0.40;0.30;;;13.80;96.30;;;;;;5091012;28;20406;-73
2022/01/04 02:32:56;;;;;;;0.40;0.20;;;13.80;96.40;;;;;;5089924;28;20374;-73
2022/01/04 02:35:26;;;;;;;0.40;0.20;;;13.70;96.50;;;;;;5090808;28;20378;-73
2022/01/04 02:37:57;;;;;;;0.40;0.20;;;13.70;96.90;;;;;;5090526;28;20374;-73
2022/01/04 02:40:24;;;;;;;0.40;0.30;;;13.70;97.00;;;;;;5090668;28;20417;-73
2022/01/04 02:42:50;;;;;;;0.40;0.20;;;13.70;96.60;;;;;;5090402;28;20382;-73
2022/01/04 02:45:16;;;;;;;0.40;0.20;;;13.70;96.60;;;;;;5107291;28;20383;-73
2022/01/04 02:47:42;;;;;;;0.40;0.27;;;13.60;96.80;;;;;;5110503;28;20407;-73
2022/01/04 02:50:09;;;;;;;0.40;0.30;;;13.60;96.90;;;;;;5110128;28;20917;-74
2022/01/04 02:52:35;;;;;;;0.40;0.20;;;13.60;96.60;;;;;;5110577;28;20372;-73
2022/01/04 02:55:14;;;;;;;0.40;0.20;;;13.60;96.60;;;;;;5092298;28;20887;-73
2022/01/04 02:57:40;;;;;;;0.40;0.30;;;13.60;96.70;;;;;;5110442;28;20904;-73
2022/01/04 03:00:09;;;;;;;0.40;0.20;;;13.60;96.50;;;;;;5109752;28;20388;-71
2022/01/04 03:02:35;;;;;;;0.52;0.52;;;13.50;96.60;;;;;;5113642;28;20376;-73
2022/01/04 03:05:02;;;;;;;0.40;0.20;;;13.60;96.60;;;;;;5114404;28;20875;-73
2022/01/04 03:07:27;;;;;;;0.40;0.30;;;13.60;96.80;;;;;;5113454;28;20739;-73
2022/01/04 03:09:53;;;;;;;0.40;0.20;;;13.70;96.70;;;;;;5114245;28;20412;-72
2022/01/04 03:12:20;;;;;;;0.40;0.20;;;13.60;96.60;;;;;;5113781;28;20906;-75
2022/01/04 03:14:45;;;;;;;0.40;0.30;;;13.60;96.60;;;;;;5114252;28;20410;-76
2022/01/04 03:17:11;;;;;;;0.40;0.20;;;13.60;96.70;;;;;;5095780;28;20424;-73
2022/01/04 03:19:38;;;;;;;0.40;0.20;;;13.70;96.70;;;;;;5113748;28;20391;-78
2022/01/04 03:22:04;;;;;;;0.40;0.20;;;13.70;96.60;;;;;;5114492;28;20775;-73
2022/01/04 03:24:30;;;;;;;0.40;0.30;;;13.70;96.80;;;;;;5113108;28;20381;-73
2022/01/04 03:26:56;;;;;;;0.93;0.57;;;13.70;97.00;;;;;;5095816;28;20384;-73
2022/01/04 03:29:22;;;;;;;0.40;0.30;;;13.70;97.30;;;;;;5112879;28;20394;-73
2022/01/04 03:31:48;;;;;;;0.40;0.20;;;13.70;97.50;;;;;;5114225;28;20380;-73
2022/01/04 03:34:13;;;;;;;0.40;0.20;;;13.60;97.80;;;;;;5095467;28;20660;-73
2022/01/04 03:36:40;;;;;;;0.40;0.20;;;13.60;98.40;;;;;;5113264;28;20718;-74
2022/01/04 03:39:07;;;;;;;0.40;0.20;;;13.60;98.80;;;;;;5095341;28;20927;-73
2022/01/04 03:41:37;;;;;;;0.40;0.20;;;13.50;99.20;;;;;;5112909;28;20383;-73
2022/01/04 03:44:07;;;;;;;0.40;0.20;;;13.50;99.80;;;;;;5105756;28;20879;-73
2022/01/04 03:46:34;;;;;;;0.40;0.20;;;13.50;99.90;;;;;;5092714;28;20393;-74
2022/01/04 03:49:00;;;;;;;0.40;0.20;;;13.40;99.90;;;;;;5093478;28;20451;-73
2022/01/04 03:51:26;;;;;;;0.40;0.30;;;13.20;99.90;;;;;;5075116;28;20775;-73
2022/01/04 03:53:51;;;;;;;0.40;0.20;;;13.00;99.90;;;;;;5092481;28;20930;-73
2022/01/04 03:56:17;;;;;;;0.40;0.20;;;12.80;99.90;;;;;;5093076;28;20375;-73
2022/01/04 03:58:43;;;;;;;0.40;0.30;;;12.70;99.90;;;;;;5092099;28;20393;-73
2022/01/04 04:01:09;;;;;;;0.40;0.20;;;12.60;99.90;;;;;;5093295;28;20382;-72
2022/01/04 04:03:34;;;;;;;0.40;0.20;;;12.50;99.90;;;;;;5093244;28;20443;-72
2022/01/04 04:06:00;;;;;;;0.40;0.30;;;12.50;99.90;;;;;;5092097;28;20386;-72
2022/01/04 04:08:26;;;;;;;0.40;0.20;;;12.60;99.90;;;;;;5092746;28;20386;-72
2022/01/04 04:10:52;;;;;;;0.40;0.20;;;12.70;99.90;;;;;;5092127;28;20405;-72
2022/01/04 04:13:18;;;;;;;0.40;0.20;;;12.60;99.90;;;;;;5092757;28;20871;-72
2022/01/04 04:15:44;;;;;;;0.40;0.20;;;12.60;99.90;;;;;;5092667;28;20399;-72
2022/01/04 04:18:11;;;;;;;0.40;0.30;;;12.50;99.90;;;;;;5092610;28;20389;-72
2022/01/04 04:20:37;;;;;;;0.40;0.30;;;12.40;99.90;;;;;;5092503;28;20382;-72
2022/01/04 04:23:04;;;;;;;0.40;0.20;;;12.20;99.90;;;;;;5091916;28;20392;-72
2022/01/04 04:25:31;;;;;;;0.40;0.20;;;12.30;99.90;;;;;;5074333;28;20379;-72
2022/01/04 04:27:57;;;;;;;0.40;0.20;;;12.30;99.90;;;;;;5092190;28;20374;-73
2022/01/04 04:30:22;;;;;;;0.70;0.60;;;12.40;99.90;;;;;;5092595;28;20417;-72
2022/01/04 04:32:48;;;;;;;0.40;0.20;;;12.50;99.90;;;;;;5092637;28;20461;-72
2022/01/04 04:35:14;;;;;;;0.40;0.30;;;12.50;99.90;;;;;;5092113;28;20447;-72
2022/01/04 04:37:40;;;;;;;0.40;0.30;;;12.60;99.90;;;;;;5092734;28;20390;-71
2022/01/04 04:40:07;;;;;;;0.40;0.22;;;12.60;99.90;;;;;;5091945;28;20382;-72
2022/01/04 04:42:33;;;;;;;0.40;0.30;;;12.50;99.90;;;;;;5092994;28;20472;-72
2022/01/04 04:44:58;;;;;;;0.40;0.20;;;12.50;99.90;;;;;;5107756;28;20890;-72
2022/01/04 04:47:24;;;;;;;0.40;0.20;;;12.50;99.90;;;;;;5112066;28;20380;-71
2022/01/04 04:49:52;;;;;;;0.40;0.20;;;12.60;99.90;;;;;;5112728;28;20423;-71
2022/01/04 04:52:18;;;;;;;0.40;0.30;;;12.60;99.90;;;;;;5112334;28;20505;-71
2022/01/04 04:54:43;;;;;;;0.40;0.20;;;12.50;99.90;;;;;;5112961;28;20479;-72
2022/01/04 04:57:09;;;;;;;0.40;0.20;;;12.50;99.90;;;;;;5111949;28;20368;-72
2022/01/04 04:59:35;;;;;;;0.40;0.20;;;12.50;99.90;;;;;;5112538;28;20380;-71
2022/01/04 05:02:01;;;;;;;1.10;0.70;;;12.30;99.90;;;;;;5112763;28;20830;-72
2022/01/04 05:04:27;;;;;;;0.40;0.22;;;12.50;99.90;;;;;;5111894;28;20443;-72
2022/01/04 05:06:53;;;;;;;0.40;0.20;;;12.40;99.90;;;;;;5112627;28;20484;-72
2022/01/04 05:09:19;;;;;;;0.40;0.20;;;12.40;99.90;;;;;;5111675;28;20769;-72
2022/01/04 05:11:45;;;;;;;0.40;0.30;;;12.50;99.90;;;;;;5112229;28;20375;-72
2022/01/04 05:14:11;;;;;;;0.40;0.40;;;12.50;99.90;;;;;;5112374;28;20377;-71
2022/01/04 05:16:36;;;;;;;0.40;0.30;;;12.40;99.90;;;;;;5112001;28;20387;-72
2022/01/04 05:19:02;;;;;;;0.40;0.30;;;12.40;99.90;;;;;;5112507;28;20404;-70
2022/01/04 05:21:28;;;;;;;0.40;0.20;;;12.60;99.90;;;;;;5111564;28;20383;-71
2022/01/04 05:23:54;;;;;;;0.40;0.20;;;12.70;99.90;;;;;;5111999;28;20388;-71
2022/01/04 05:26:21;;;;;;;0.40;0.20;;;12.60;99.90;;;;;;5112133;28;20380;-73
2022/01/04 05:28:46;;;;;;;0.40;0.30;;;12.70;99.90;;;;;;5111517;28;20423;-74
2022/01/04 05:31:13;;;;;;;0.40;0.20;;;12.70;99.90;;;;;;5111989;28;20758;-70
2022/01/04 05:33:38;;;;;;;0.40;0.30;;;12.80;99.90;;;;;;5111492;28;20760;-71
2022/01/04 05:36:04;;;;;;;0.40;0.20;;;12.70;99.90;;;;;;5111960;28;20442;-71
2022/01/04 05:38:30;;;;;;;0.40;0.20;;;12.70;99.90;;;;;;5111723;28;20402;-71
2022/01/04 05:40:56;;;;;;;0.40;0.20;;;13.10;99.90;;;;;;5111035;28;20412;-72
2022/01/04 05:43:21;;;;;;;0.40;0.20;;;13.20;99.90;;;;;;5110315;28;20373;-72
2022/01/04 05:45:47;;;;;;;0.40;0.20;;;13.30;99.90;;;;;;5090907;28;20382;-71
2022/01/04 05:48:13;;;;;;;0.40;0.30;;;13.30;99.90;;;;;;5091363;28;20737;-71
2022/01/04 05:50:39;;;;;;;0.40;0.30;;;13.40;99.90;;;;;;5091326;28;20409;-71
2022/01/04 05:53:07;;;;;;;0.40;0.20;;;13.50;99.90;;;;;;5091080;28;20389;-71
2022/01/04 05:55:32;;;;;;;0.40;0.30;;;13.60;99.90;;;;;;5091423;28;20397;-71
2022/01/04 05:57:58;;;;;;;0.40;0.20;;;13.60;99.90;;;;;;5090824;28;20379;-72
2022/01/04 06:00:23;;;;;;;0.40;0.20;;;13.70;99.90;;;;;;5091056;28;20378;-72
2022/01/04 06:02:49;;;;;;;0.40;0.30;;;13.80;99.90;;;;;;5090761;28;20716;-72
2022/01/04 06:05:15;;;;;;;0.40;0.30;;;13.90;99.90;;;;;;5091319;28;20410;-72
2022/01/04 06:07:40;;;;;;;0.40;0.20;;;13.90;99.90;;;;;;5091307;28;20391;-72
2022/01/04 06:10:08;;;;;;;0.40;0.20;;;13.90;99.90;;;;;;5090574;28;20414;-72
2022/01/04 06:15:09;;;;;;;0.80;0.80;;;14.10;99.90;;;;;;5090496;28;20386;-72
2022/01/04 06:17:39;;;;;;;0.40;0.30;;;14.10;99.90;;;;;;5091286;28;20374;-72
2022/01/04 06:20:06;;;;;;;0.40;0.20;;;14.30;99.90;;;;;;5090396;28;20385;-72
2022/01/04 06:22:33;;;;;;;0.40;0.20;;;14.40;99.90;;;;;;5090770;28;20895;-72
2022/01/04 06:24:59;;;;;;;0.40;0.20;;;14.50;99.90;;;;;;5091178;28;20402;-72
2022/01/04 06:27:25;;;;;;;0.40;0.20;;;14.60;99.90;;;;;;5090653;28;20366;-72
2022/01/04 06:29:51;;;;;;;0.40;0.20;;;14.50;99.90;;;;;;5090587;28;20493;-71
2022/01/04 06:32:17;;;;;;;0.40;0.20;;;14.80;99.90;;;;;;5090342;28;20923;-72
2022/01/04 06:34:44;;;;;;;0.40;0.20;;;14.90;99.90;;;;;;5072813;28;20397;-72
2022/01/04 06:37:11;;;;;;;0.40;0.30;;;15.00;99.90;;;;;;5092753;28;20396;-72
2022/01/04 06:39:37;;;;;;;0.40;0.30;;;15.00;99.90;;;;;;5095053;28;20469;-72
2022/01/04 06:42:03;;;;;;;0.40;0.20;;;15.00;99.90;;;;;;5094887;28;20417;-71
2022/01/04 06:44:29;;;;;;;0.40;0.20;;;15.00;99.90;;;;;;5105115;28;20384;-71
2022/01/04 06:46:54;;;;;;;0.40;0.30;;;15.00;99.90;;;;;;5115168;28;20418;-71
2022/01/04 06:49:20;;;;;;;0.40;0.20;;;15.00;99.90;;;;;;5114260;28;20368;-72
2022/01/04 06:51:47;;;;;;;0.40;0.20;;;15.10;99.90;;;;;;5114900;28;20376;-71
2022/01/04 06:54:15;;;;;;;0.40;0.30;;;15.10;99.90;;;;;;5115027;28;20892;-71
2022/01/04 06:56:41;;;;;;;0.40;0.20;;;15.10;99.90;;;;;;5114363;28;20372;-72
2022/01/04 06:59:08;;;;;;;0.40;0.20;;;15.30;99.90;;;;;;5114954;28;20903;-71
2022/01/04 07:01:35;;;;;;;0.40;0.20;;;15.30;99.90;;;;;;5114550;28;20390;-72
2022/01/04 07:04:01;;;;;;;0.40;0.20;;;15.40;99.90;;;;;;5114558;28;20444;-71
2022/01/04 07:06:27;;;;;;;0.40;0.20;;;15.50;99.90;;;;;;5113481;28;20412;-71
2022/01/04 07:08:52;;;;;;;0.40;0.20;;;15.50;99.90;;;;;;5105559;28;20412;-72
2022/01/04 07:11:18;;;;;;;0.40;0.20;;;15.60;99.90;;;;;;5101946;28;20437;-72
2022/01/04 07:13:44;;;;;;;0.40;0.40;;;15.50;99.90;;;;;;5096210;28;20378;-71
2022/01/04 07:16:10;;;;;;;0.40;0.20;;;15.70;99.50;;;;;;5102712;28;20444;-71
2022/01/04 07:18:36;;;;;;;0.80;0.50;;;15.60;99.50;;;;;;5095522;28;20450;-71
2022/01/04 07:21:02;;;;;;;0.40;0.20;;;15.60;99.20;;;;;;5093584;28;20391;-71
2022/01/04 07:23:28;;;;;;;0.40;0.30;;;15.60;99.10;;;;;;5099078;28;20760;-71
2022/01/04 07:25:55;;;;;;;0.40;0.30;;;15.50;99.30;;;;;;5096851;28;20507;-71
2022/01/04 07:28:21;;;;;;;0.40;0.20;;;15.60;99.10;;;;;;5093987;28;20378;-71
2022/01/04 07:30:47;;;;;;;0.40;0.20;;;15.60;99.20;;;;;;5093538;28;20404;-71
2022/01/04 07:33:14;;;;;;;0.40;0.20;;;15.60;99.00;;;;;;5094375;28;20374;-71
2022/01/04 07:35:40;;;;;;;0.40;0.20;;;15.70;98.50;;;;;;5093491;28;20508;-72
2022/01/04 07:38:06;;;;;;;0.40;0.20;;;15.70;98.00;;;;;;5093865;28;20446;-72
2022/01/04 07:40:32;;;;;;;0.40;0.30;;;15.70;97.80;;;;;;5093783;28;20389;-72
2022/01/04 07:43:00;;;;;;;0.40;0.30;;;15.80;97.50;;;;;;5093169;28;20385;-73
2022/01/04 07:45:35;;;;;;;0.40;0.30;;;15.80;97.00;;;;;;5093896;28;20374;-72
2022/01/04 07:48:01;;;;;;;0.40;0.25;;;15.80;97.20;;;;;;5092782;28;20365;-72
2022/01/04 07:50:28;;;;;;;0.40;0.40;;;15.70;97.20;;;;;;5093357;28;20748;-72
2022/01/04 07:52:54;;;;;;;0.40;0.20;;;15.70;97.10;;;;;;5093001;28;20708;-73
2022/01/04 07:55:19;;;;;;;0.40;0.20;;;15.70;97.30;;;;;;5093623;28;20374;-72
2022/01/04 07:57:45;;;;;;;0.40;0.20;;;15.80;96.40;;;;;;5093548;28;20386;-73
2022/01/04 08:00:15;;;;;;;0.40;0.20;;;15.80;96.40;;;;;;5092710;28;21076;-74
2022/01/04 08:02:41;;;;;;;0.40;0.20;;;15.80;95.90;;;;;;5093218;28;20848;-72
2022/01/04 08:05:09;;;;;;;0.40;0.20;;;15.80;96.40;;;;;;5092920;28;20382;-72
2022/01/04 08:07:35;;;;;;;0.40;0.30;;;15.70;96.60;;;;;;5093096;28;20374;-72
2022/01/04 08:10:00;;;;;;;0.40;0.30;;;15.60;97.00;;;;;;5092948;28;20474;-73
2022/01/04 08:12:26;;;;;;;0.40;0.20;;;15.60;96.90;;;;;;5093255;28;20381;-72
2022/01/04 08:14:52;;;;;;;0.40;0.20;;;15.70;96.60;;;;;;5093258;28;20418;-73
2022/01/04 08:17:18;;;;;;;0.40;0.20;;;15.70;96.00;;;;;;5092658;28;20716;-73
2022/01/04 08:19:44;;;;;;;0.40;0.30;;;15.70;96.30;;;;;;5093435;28;20374;-73
2022/01/04 08:22:10;;;;;;;0.70;0.70;;;15.70;96.50;;;;;;5103196;28;20384;-73
2022/01/04 08:24:35;;;;;;;0.40;0.20;;;15.50;96.80;;;;;;5102457;28;20468;-74
2022/01/04 08:27:01;;;;;;;0.40;0.20;;;15.70;96.20;;;;;;5103909;28;20426;-72
2022/01/04 08:29:27;;;;;;;0.40;0.20;;;15.50;96.60;;;;;;5112467;28;20407;-72
2022/01/04 08:31:53;;;;;;;0.40;0.20;;;15.40;96.90;;;;;;5113251;28;20482;-72
2022/01/04 08:34:19;;;;;;;0.40;0.20;;;15.40;96.80;;;;;;5112288;28;20461;-73
2022/01/04 08:36:45;;;;;;;0.40;0.20;;;15.40;97.00;;;;;;5113021;28;20424;-73
2022/01/04 08:39:14;;;;;;;0.40;0.20;;;15.50;96.30;;;;;;5113216;28;20414;-72
2022/01/04 08:41:50;;;;;;;0.40;0.30;;;15.40;96.40;;;;;;5112938;28;20372;-72
2022/01/04 08:44:15;;;;;;;0.40;0.20;;;15.50;95.80;;;;;;5103197;28;20373;-73
2022/01/04 08:46:41;;;;;;;0.40;0.28;;;15.50;96.00;;;;;;5092546;28;20435;-73
2022/01/04 08:49:07;;;;;;;0.40;0.30;;;15.50;95.90;;;;;;5092628;28;20689;-72
2022/01/04 08:51:34;;;;;;;0.40;0.20;;;15.50;95.80;;;;;;5091624;28;20425;-72
2022/01/04 08:54:00;;;;;;;0.40;0.30;;;15.50;95.80;;;;;;5092058;28;20409;-72
2022/01/04 08:56:26;;;;;;;0.40;0.30;;;15.50;95.80;;;;;;5091611;28;20370;-73
2022/01/04 08:58:53;;;;;;;0.40;0.30;;;15.50;95.70;;;;;;5091512;28;20712;-73
2022/01/04 09:01:19;;;;;;;0.40;0.30;;;15.70;94.80;;;;;;5092383;28;20382;-73
2022/01/04 09:03:45;;;;;;;0.40;0.20;;;15.60;94.90;;;;;;5091654;28;20370;-73
2022/01/04 09:06:11;;;;;;;0.40;0.30;;;15.70;94.70;;;;;;5092255;28;20386;-72
2022/01/04 09:08:37;;;;;;;0.40;0.20;;;15.80;93.90;;;;;;5091491;28;20444;-73
2022/01/04 09:11:03;;;;;;;0.40;0.30;;;15.90;93.80;;;;;;5092068;28;20875;-72
2022/01/04 09:13:35;;;;;;;0.40;0.20;;;15.80;93.80;;;;;;5091538;28;20435;-72
2022/01/04 09:18:43;;;;;;;0.40;0.20;;;16.00;93.10;;;;;;5091928;28;20381;-72
2022/01/04 09:21:10;;;;;;;0.40;0.20;;;16.00;93.00;;;;;;5092136;28;20398;-72
2022/01/04 09:23:36;;;;;;;0.40;0.30;;;16.10;92.60;;;;;;5091320;28;20460;-73
2022/01/04 09:26:03;;;;;;;0.40;0.30;;;16.10;92.50;;;;;;5073742;28;20412;-72
2022/01/04 09:28:28;;;;;;;0.40;0.30;;;16.10;92.40;;;;;;5091560;28;20394;-72
2022/01/04 09:30:55;;;;;;;0.40;0.30;;;16.30;91.90;;;;;;5091233;28;20717;-72
2022/01/04 09:33:21;;;;;;;0.40;0.20;;;16.30;91.80;;;;;;5091533;28;20390;-71
2022/01/04 09:35:49;;;;;;;0.40;0.30;;;16.40;91.60;;;;;;5090393;28;20390;-75
2022/01/04 09:38:15;;;;;;;0.40;0.20;;;16.40;91.40;;;;;;5073195;28;20929;-73
2022/01/04 09:40:41;;;;;;;0.40;0.20;;;16.50;91.30;;;;;;5091533;28;20556;-77
2022/01/04 09:43:07;;;;;;;0.40;0.20;;;16.40;92.20;;;;;;5090119;28;20990;-73
2022/01/04 09:45:34;;;;;;;0.40;0.20;;;16.40;91.70;;;;;;5091198;28;20763;-76
2022/01/04 09:47:59;;;;;;;0.40;0.20;;;16.50;91.30;;;;;;5088981;28;20810;-73
2022/01/04 09:50:25;;;;;;;0.40;0.20;;;16.40;91.10;;;;;;5099643;28;20751;-74
2022/01/04 09:52:54;;;;;;;0.40;0.30;;;16.40;91.20;;;;;;5098953;28;20388;-73
2022/01/04 09:55:20;;;;;;;0.40;0.20;;;16.50;91.20;;;;;;5098208;28;20392;-70
2022/01/04 09:57:47;;;;;;;0.40;0.20;;;16.50;90.90;;;;;;5098911;28;20377;-73
2022/01/04 10:00:15;;;;;;;0.40;0.20;;;16.50;90.90;;;;;;5099067;28;20384;-74
2022/01/04 10:02:46;;;;;;;0.40;0.20;;;16.50;91.20;;;;;;5098679;28;20380;-74
2022/01/04 10:05:12;;;;;;;0.40;0.30;;;16.50;91.20;;;;;;5096724;28;20396;-75
2022/01/04 10:07:38;;;;;;;0.47;0.47;;;16.60;91.10;;;;;;5099135;28;20385;-74
2022/01/04 10:10:08;;;;;;;0.40;0.40;;;16.60;91.10;;;;;;5098438;28;20971;-72
2022/01/04 10:12:59;;;;;;;0.40;0.30;;;16.50;91.20;;;;;;5099203;28;20404;-73
2022/01/04 10:15:32;;;;;;;0.40;0.20;;;16.60;91.20;;;;;;5097657;28;20380;-71
2022/01/04 10:18:03;;;;;;;0.40;0.30;;;16.50;91.30;;;;;;5098669;28;20399;-72
2022/01/04 10:20:29;;;;;;;0.40;0.20;;;16.50;91.40;;;;;;5098848;28;20491;-72
2022/01/04 10:22:54;;;;;;;0.40;0.30;;;16.50;91.60;;;;;;5099338;28;20394;-71
2022/01/04 10:25:20;;;;;;;0.40;0.30;;;16.50;91.60;;;;;;5096969;28;20445;-72
2022/01/04 10:27:51;;;;;;;0.40;0.30;;;16.60;91.40;;;;;;5099091;28;20364;-71
2022/01/04 10:30:22;;;;;;;0.40;0.20;;;16.60;91.60;;;;;;5097923;28;20497;-72
2022/01/04 10:33:12;;;;;;;0.40;0.30;;;16.60;91.40;;;;;;5098817;28;20865;-72
2022/01/04 10:35:44;;;;;;;0.40;0.30;;;16.60;91.30;;;;;;5097865;28;20558;-72
2022/01/04 10:38:28;;;;;;;0.40;0.30;;;16.60;91.80;;;;;;5098384;28;20400;-73
2022/01/04 10:40:57;;;;;;;0.40;0.30;;;16.60;91.60;;;;;;5098669;28;20388;-71
2022/01/04 10:43:27;;;;;;;0.40;0.20;;;16.60;91.60;;;;;;5097937;28;20380;-72
2022/01/04 10:45:53;;;;;;;0.40;0.20;;;16.70;91.40;;;;;;5097766;28;20479;-74
2022/01/04 10:48:23;;;;;;;0.80;0.80;;;16.70;91.10;;;;;;5097825;28;20471;-73
2022/01/04 10:50:55;;;;;;;3.50;0.70;;;16.90;90.80;;;;;;5098564;28;20916;-72
2022/01/04 10:53:35;;;;;;;0.40;0.30;;;16.80;91.00;;;;;;5079441;28;20790;-72
2022/01/04 10:56:05;;;;;;;0.40;0.30;;;16.60;92.00;;;;;;5097259;28;20457;-73
2022/01/04 10:58:43;;;;;;;0.40;0.30;;;16.40;92.10;;;;;;5098133;28;20836;-73
2022/01/04 11:01:21;;;;;;;0.40;0.20;;;16.30;92.80;;;;;;5098575;28;20380;-73
2022/01/04 11:03:51;;;;;;;0.40;0.20;;;16.10;93.50;;;;;;5098489;28;20456;-73
2022/01/04 11:06:36;;;;;;;0.40;0.30;;;16.20;93.80;;;;;;5096783;28;20460;-72
2022/01/04 11:09:04;;;;;;;0.40;0.20;;;16.10;95.20;;;;;;5098592;28;20754;-72
2022/01/04 11:11:30;;;;;;;0.40;0.20;;;15.90;95.10;;;;;;5097731;28;20443;-71
2022/01/04 11:13:55;;;;;;;0.40;0.20;;;15.80;96.10;;;;;;5099271;28;20512;-74
2022/01/04 11:16:23;;;;;;;0.40;0.30;;;15.80;94.80;;;;;;5096957;28;20380;-71
2022/01/04 11:18:52;;;;;;;0.40;0.30;;;16.00;94.00;;;;;;5097555;28;20461;-76
2022/01/04 11:21:25;;;;;;;0.40;0.20;;;15.90;94.60;;;;;;5098042;28;20389;-74
2022/01/04 11:23:52;;;;;;;0.40;0.30;;;15.90;94.20;;;;;;5101322;28;20408;-75
2022/01/04 11:26:19;;;;;;;4.20;0.90;;;15.90;93.70;;;;;;5100730;28;20964;-74
2022/01/04 11:28:49;;;;;;;0.40;0.27;;;15.80;94.20;;;;;;5082377;28;20914;-75
2022/01/04 11:31:52;;;;;;;0.40;0.40;;;15.60;95.50;;;;;;5102101;28;20401;-74
2022/01/04 11:34:24;;;;;;;0.40;0.30;;;15.40;95.90;;;;;;5100531;28;20381;-72
2022/01/04 11:36:51;;;;;;;0.40;0.20;;;15.30;96.40;;;;;;5100913;28;20900;-74
2022/01/04 11:39:40;;;;;;;0.40;0.30;;;15.20;97.20;;;;;;5102010;28;20380;-73
2022/01/04 11:42:10;;;;;;;0.40;0.30;;;14.90;99.60;;;;;;5089984;28;20404;-72
2022/01/04 11:44:49;;;;;;;0.40;0.30;;;14.70;99.90;;;;;;5100352;28;20984;-72
2022/01/04 11:47:23;;;;;;;0.40;0.20;;;14.50;99.90;;;;;;5082719;28;20411;-73
2022/01/04 11:50:13;;;;;;;0.40;0.30;;;14.40;99.90;;;;;;5101029;28;20412;-75
2022/01/04 11:52:51;;;;;;;0.40;0.20;;;14.20;99.90;;;;;;5101355;28;20850;-72
2022/01/04 11:55:21;;;;;;;0.40;0.20;;;14.20;99.90;;;;;;5099781;28;20400;-73
2022/01/04 11:57:51;;;;;;;0.40;0.20;;;14.20;99.90;;;;;;5101585;28;20404;-73
2022/01/04 12:00:29;;;;;;;0.40;0.30;;;14.10;99.90;;;;;;5101185;28;20373;-74
2022/01/04 12:03:02;;;;;;;0.40;0.20;;;14.00;99.90;;;;;;5100487;28;20888;-72
2022/01/04 12:05:28;;;;;;;0.40;0.20;;;13.90;99.90;;;;;;5100116;28;20392;-74
2022/01/04 12:07:57;;;;;;;0.40;0.20;;;13.90;99.90;;;;;;5099310;28;20384;-73
2022/01/04 12:10:23;;;;;;;1.10;0.60;;;13.80;99.90;;;;;;5098022;28;20493;-72
2022/01/04 12:13:16;;;;;;;0.40;0.20;;;13.80;99.90;;;;;;5080565;28;20404;-73
2022/01/04 12:15:57;;;;;;;0.60;0.60;;;13.80;99.90;;;;;;5098353;28;20850;-72
2022/01/04 12:18:23;;;;;;;0.40;0.20;;;13.80;99.90;;;;;;5080047;28;20885;-72
2022/01/04 12:20:56;;;;;;;0.40;0.20;;;13.80;99.90;;;;;;5100165;28;20388;-72
2022/01/04 12:23:31;;;;;;;0.40;0.40;;;13.90;99.90;;;;;;5099220;28;20416;-73
2022/01/04 12:26:05;;;;;;;0.40;0.20;;;13.80;99.90;;;;;;5097957;28;20885;-73
2022/01/04 12:28:40;;;;;;;0.40;0.20;;;13.90;99.90;;;;;;5099497;28;20408;-72
2022/01/04 12:33:48;;;;;;;0.40;0.20;;;13.80;99.90;;;;;;5098203;28;20408;-72
2022/01/04 12:36:29;;;;;;;0.40;0.30;;;13.80;99.90;;;;;;5097395;28;20489;-72
2022/01/04 12:38:57;;;;;;;0.40;0.20;;;13.80;99.90;;;;;;5099576;28;20392;-73
2022/01/04 12:41:24;;;;;;;0.40;0.20;;;13.90;99.90;;;;;;5098294;28;20428;-72
2022/01/04 12:43:50;;;;;;;0.40;0.20;;;13.90;99.90;;;;;;5100128;28;20384;-72
2022/01/04 12:46:34;;;;;;;0.40;0.30;;;13.80;99.90;;;;;;5103574;28;20427;-72
2022/01/04 12:49:03;;;;;;;0.80;0.60;;;13.70;99.90;;;;;;5113706;28;20466;-72
2022/01/04 12:51:38;;;;;;;0.40;0.20;;;13.60;99.90;;;;;;5091811;28;20436;-71
2022/01/04 12:54:11;;;;;;;0.40;0.20;;;13.40;99.90;;;;;;5092033;28;20472;-72
2022/01/04 12:56:45;;;;;;;0.40;0.30;;;13.20;99.90;;;;;;5094602;28;20440;-73
2022/01/04 12:59:23;;;;;;;0.40;0.30;;;13.00;99.90;;;;;;5108355;27;20414;-73
2022/01/04 13:01:50;;;;;;;0.40;0.20;;;12.90;99.90;;;;;;5100396;28;20444;-72
2022/01/04 13:04:27;;;;;;;0.90;0.90;;;12.80;99.90;;;;;;5102250;28;20410;-72